メインページ
METAR-TAF:

METAR-TAF

空港 :

バンクーバー, ブリティッシュコロンビア州, カナダ

バンクーバー国際空港

緯度: 49-11N, 経度: 123-10W, 海抜: 3m

現時点の気象観測

当レポートは1時間3分前の21:00(UTC)に作成
西の風 5kt、から西/北西の間で変化する
気温 0°C
湿度 55%
気圧 1025 hPa
視程: 48.3km
高度3000ftの雲はほとんどない
高度22000ftの雲はほとんどない
高度25000ftの千切れ雲あり

METAR: CYVR 192100Z 28005KT 190V300 30SM FEW030 FEW220 BKN250 M00/M08 A3027 RMK SC1CC1CS4 CONTRAILS SLP250

時間: 14:03 (22:03 UTC)

予報

当レポートは1時間24分前の20:39(UTC)に作成
予報は19日の 21時(UTC)から 20日の 24時(UTC)まで有効
西/北西の風 5kt
視程: 10km
高度3000ftの雲はほとんどない
高度22000ftの雲は散在している
20日の 0200時(UTC)から
東/北東の風 5kt
視程: 10km
高度15000ftの雲は散在している
20日の 0600時(UTC)から
東/北東の風 5kt
視程: 10km
高度5000ftの千切れ雲あり
20日の 1800時(UTC)から
の風 5kt
視程: 10km
高度5000ftの雲は散在している

TAF: CYVR 192039Z 1921/2024 29005KT P6SM FEW030 SCT220 FM200200 07005KT P6SM SCT150 FM200600 07005KT P6SM BKN050 FM201800 09005KT P6SM SCT050 RMK NXT FCST BY 200000Z

4,000以上の空港の気象観測と天気予報(METAR報とTAF報)

利用可能な観測所は地図上に黄色い丸と赤い丸で示す。

丸の上にカーソルを重ねると観測所名を参照できる。

次にクリックすると気象観測と天気予報を参照できる。

マップの切り替え:黒色「×」印の緑ボタンをクリックして拡大、「-」印の緑ボタンをクリックして縮小、緑色の三角印をクリックして隣りの地図に切り替え


METAR-TAF: